sensor_id;sensor_type;location;lat;lon;timestamp;P1;durP1;ratioP1;P2;durP2;ratioP2
44588;SDS011;30298;52.562;13.414;2023-01-10T00:02:09;3.90;;;2.83;;
44588;SDS011;30298;52.562;13.414;2023-01-10T00:04:34;4.83;;;3.77;;
44588;SDS011;30298;52.562;13.414;2023-01-10T00:06:59;4.40;;;3.23;;
44588;SDS011;30298;52.562;13.414;2023-01-10T00:09:24;4.67;;;3.50;;
44588;SDS011;30298;52.562;13.414;2023-01-10T00:11:50;7.07;;;3.43;;
44588;SDS011;30298;52.562;13.414;2023-01-10T00:14:34;5.18;;;3.80;;
44588;SDS011;30298;52.562;13.414;2023-01-10T00:17:02;5.60;;;3.90;;
44588;SDS011;30298;52.562;13.414;2023-01-10T00:19:28;4.82;;;3.55;;
44588;SDS011;30298;52.562;13.414;2023-01-10T00:21:53;4.70;;;3.47;;
44588;SDS011;30298;52.562;13.414;2023-01-10T00:24:19;7.68;;;3.97;;
44588;SDS011;30298;52.562;13.414;2023-01-10T00:26:46;5.20;;;4.00;;
44588;SDS011;30298;52.562;13.414;2023-01-10T00:29:18;6.03;;;3.90;;
44588;SDS011;30298;52.562;13.414;2023-01-10T00:31:44;6.47;;;4.00;;
44588;SDS011;30298;52.562;13.414;2023-01-10T00:34:09;6.27;;;3.97;;
44588;SDS011;30298;52.562;13.414;2023-01-10T00:36:35;5.33;;;3.53;;
44588;SDS011;30298;52.562;13.414;2023-01-10T00:39:00;4.90;;;3.53;;
44588;SDS011;30298;52.562;13.414;2023-01-10T00:41:25;4.93;;;3.60;;
44588;SDS011;30298;52.562;13.414;2023-01-10T00:44:09;6.55;;;3.53;;
44588;SDS011;30298;52.562;13.414;2023-01-10T00:46:35;7.07;;;3.50;;
44588;SDS011;30298;52.562;13.414;2023-01-10T00:49:00;5.30;;;3.70;;
44588;SDS011;30298;52.562;13.414;2023-01-10T00:51:26;6.22;;;3.97;;
44588;SDS011;30298;52.562;13.414;2023-01-10T00:53:51;7.13;;;3.50;;
44588;SDS011;30298;52.562;13.414;2023-01-10T00:56:16;6.63;;;3.80;;
44588;SDS011;30298;52.562;13.414;2023-01-10T00:58:41;7.47;;;3.67;;
44588;SDS011;30298;52.562;13.414;2023-01-10T01:01:08;7.03;;;3.90;;
44588;SDS011;30298;52.562;13.414;2023-01-10T01:03:34;7.50;;;3.55;;
44588;SDS011;30298;52.562;13.414;2023-01-10T01:06:02;5.63;;;4.03;;
44588;SDS011;30298;52.562;13.414;2023-01-10T01:08:27;4.93;;;3.92;;
44588;SDS011;30298;52.562;13.414;2023-01-10T01:10:53;6.73;;;4.30;;
44588;SDS011;30298;52.562;13.414;2023-01-10T01:13:19;5.90;;;3.73;;
44588;SDS011;30298;52.562;13.414;2023-01-10T01:15:45;8.27;;;4.32;;
44588;SDS011;30298;52.562;13.414;2023-01-10T01:18:11;6.97;;;3.97;;
44588;SDS011;30298;52.562;13.414;2023-01-10T01:20:37;5.78;;;3.65;;
44588;SDS011;30298;52.562;13.414;2023-01-10T01:25:28;4.60;;;3.70;;
44588;SDS011;30298;52.562;13.414;2023-01-10T01:27:53;7.77;;;3.60;;
44588;SDS011;30298;52.562;13.414;2023-01-10T01:30:18;5.60;;;3.70;;
44588;SDS011;30298;52.562;13.414;2023-01-10T01:32:44;4.73;;;3.43;;
44588;SDS011;30298;52.562;13.414;2023-01-10T01:35:09;4.80;;;3.67;;
44588;SDS011;30298;52.562;13.414;2023-01-10T01:37:36;7.03;;;3.80;;
44588;SDS011;30298;52.562;13.414;2023-01-10T01:40:01;5.23;;;3.50;;
44588;SDS011;30298;52.562;13.414;2023-01-10T01:42:28;5.90;;;3.60;;
44588;SDS011;30298;52.562;13.414;2023-01-10T01:48:36;5.35;;;3.03;;
44588;SDS011;30298;52.562;13.414;2023-01-10T01:50:33;5.20;;;3.72;;
44588;SDS011;30298;52.562;13.414;2023-01-10T01:53:01;5.95;;;3.75;;
44588;SDS011;30298;52.562;13.414;2023-01-10T01:55:27;6.43;;;4.57;;
44588;SDS011;30298;52.562;13.414;2023-01-10T01:57:54;4.43;;;3.28;;
44588;SDS011;30298;52.562;13.414;2023-01-10T02:00:21;6.10;;;3.53;;
44588;SDS011;30298;52.562;13.414;2023-01-10T02:02:50;4.37;;;3.70;;
44588;SDS011;30298;52.562;13.414;2023-01-10T02:05:16;5.70;;;3.90;;
44588;SDS011;30298;52.562;13.414;2023-01-10T02:07:43;6.85;;;4.55;;
44588;SDS011;30298;52.562;13.414;2023-01-10T02:10:13;6.80;;;4.07;;
44588;SDS011;30298;52.562;13.414;2023-01-10T02:12:39;5.80;;;3.90;;
44588;SDS011;30298;52.562;13.414;2023-01-10T02:15:05;4.82;;;3.90;;
44588;SDS011;30298;52.562;13.414;2023-01-10T02:17:31;9.43;;;4.47;;
44588;SDS011;30298;52.562;13.414;2023-01-10T02:19:57;7.20;;;4.30;;
44588;SDS011;30298;52.562;13.414;2023-01-10T02:32:53;7.23;;;4.30;;
44588;SDS011;30298;52.562;13.414;2023-01-10T02:43:09;8.13;;;5.20;;
44588;SDS011;30298;52.562;13.414;2023-01-10T02:48:04;8.52;;;4.45;;
44588;SDS011;30298;52.562;13.414;2023-01-10T02:50:34;8.73;;;5.30;;
44588;SDS011;30298;52.562;13.414;2023-01-10T02:53:05;8.15;;;4.50;;
44588;SDS011;30298;52.562;13.414;2023-01-10T02:58:06;7.25;;;4.35;;
44588;SDS011;30298;52.562;13.414;2023-01-10T03:03:12;5.80;;;4.60;;
44588;SDS011;30298;52.562;13.414;2023-01-10T03:05:46;9.68;;;4.50;;
44588;SDS011;30298;52.562;13.414;2023-01-10T03:10:59;10.40;;;4.35;;
44588;SDS011;30298;52.562;13.414;2023-01-10T03:15:53;7.28;;;4.18;;
44588;SDS011;30298;52.562;13.414;2023-01-10T03:18:26;6.25;;;4.28;;
44588;SDS011;30298;52.562;13.414;2023-01-10T03:20:52;8.57;;;4.85;;
44588;SDS011;30298;52.562;13.414;2023-01-10T03:23:20;9.82;;;5.18;;
44588;SDS011;30298;52.562;13.414;2023-01-10T03:25:47;6.40;;;4.30;;
44588;SDS011;30298;52.562;13.414;2023-01-10T03:28:17;8.75;;;4.60;;
44588;SDS011;30298;52.562;13.414;2023-01-10T03:30:44;10.45;;;5.68;;
44588;SDS011;30298;52.562;13.414;2023-01-10T03:33:11;8.10;;;5.18;;
44588;SDS011;30298;52.562;13.414;2023-01-10T03:35:48;9.27;;;5.50;;
44588;SDS011;30298;52.562;13.414;2023-01-10T03:38:17;10.18;;;4.40;;
44588;SDS011;30298;52.562;13.414;2023-01-10T03:43:21;10.68;;;4.82;;
44588;SDS011;30298;52.562;13.414;2023-01-10T03:46:29;6.93;;;4.38;;
44588;SDS011;30298;52.562;13.414;2023-01-10T03:48:51;6.72;;;4.30;;
44588;SDS011;30298;52.562;13.414;2023-01-10T03:51:17;11.55;;;5.60;;
44588;SDS011;30298;52.562;13.414;2023-01-10T03:53:43;7.80;;;4.35;;
44588;SDS011;30298;52.562;13.414;2023-01-10T03:56:11;10.95;;;4.65;;
44588;SDS011;30298;52.562;13.414;2023-01-10T03:58:40;8.07;;;4.53;;
44588;SDS011;30298;52.562;13.414;2023-01-10T04:01:05;8.03;;;5.13;;
44588;SDS011;30298;52.562;13.414;2023-01-10T04:03:30;7.37;;;4.10;;
44588;SDS011;30298;52.562;13.414;2023-01-10T04:05:56;11.90;;;5.70;;
44588;SDS011;30298;52.562;13.414;2023-01-10T04:08:21;7.33;;;4.53;;
44588;SDS011;30298;52.562;13.414;2023-01-10T04:10:49;10.17;;;4.23;;
44588;SDS011;30298;52.562;13.414;2023-01-10T04:13:14;8.23;;;3.95;;
44588;SDS011;30298;52.562;13.414;2023-01-10T04:15:40;11.60;;;4.67;;
44588;SDS011;30298;52.562;13.414;2023-01-10T04:18:05;6.97;;;3.80;;
44588;SDS011;30298;52.562;13.414;2023-01-10T04:20:30;6.50;;;4.23;;
44588;SDS011;30298;52.562;13.414;2023-01-10T04:22:55;7.77;;;4.07;;
44588;SDS011;30298;52.562;13.414;2023-01-10T04:25:21;8.53;;;3.77;;
44588;SDS011;30298;52.562;13.414;2023-01-10T04:27:47;11.02;;;4.70;;
44588;SDS011;30298;52.562;13.414;2023-01-10T04:30:13;10.55;;;4.60;;
44588;SDS011;30298;52.562;13.414;2023-01-10T04:32:38;10.53;;;5.17;;
44588;SDS011;30298;52.562;13.414;2023-01-10T04:35:03;10.20;;;4.67;;
44588;SDS011;30298;52.562;13.414;2023-01-10T04:37:29;9.37;;;5.00;;
44588;SDS011;30298;52.562;13.414;2023-01-10T04:39:54;11.87;;;5.63;;
44588;SDS011;30298;52.562;13.414;2023-01-10T04:42:19;10.63;;;5.40;;
44588;SDS011;30298;52.562;13.414;2023-01-10T04:44:45;8.27;;;5.50;;
44588;SDS011;30298;52.562;13.414;2023-01-10T04:47:10;14.70;;;5.77;;
44588;SDS011;30298;52.562;13.414;2023-01-10T04:49:38;13.82;;;7.00;;
44588;SDS011;30298;52.562;13.414;2023-01-10T04:52:04;12.23;;;5.63;;
44588;SDS011;30298;52.562;13.414;2023-01-10T04:54:29;17.30;;;5.63;;
44588;SDS011;30298;52.562;13.414;2023-01-10T04:56:54;10.03;;;6.07;;
44588;SDS011;30298;52.562;13.414;2023-01-10T04:59:20;12.33;;;6.00;;
44588;SDS011;30298;52.562;13.414;2023-01-10T05:01:45;15.30;;;7.03;;
44588;SDS011;30298;52.562;13.414;2023-01-10T05:04:10;12.93;;;6.30;;
44588;SDS011;30298;52.562;13.414;2023-01-10T05:06:36;12.57;;;5.70;;
44588;SDS011;30298;52.562;13.414;2023-01-10T05:09:04;13.38;;;5.53;;
44588;SDS011;30298;52.562;13.414;2023-01-10T05:11:29;11.10;;;5.47;;
44588;SDS011;30298;52.562;13.414;2023-01-10T05:13:54;13.70;;;6.27;;
44588;SDS011;30298;52.562;13.414;2023-01-10T05:16:20;13.77;;;6.00;;
44588;SDS011;30298;52.562;13.414;2023-01-10T05:18:45;15.50;;;6.43;;
44588;SDS011;30298;52.562;13.414;2023-01-10T05:21:11;11.37;;;6.13;;
44588;SDS011;30298;52.562;13.414;2023-01-10T05:23:37;14.40;;;6.43;;
44588;SDS011;30298;52.562;13.414;2023-01-10T05:26:06;17.23;;;6.70;;
44588;SDS011;30298;52.562;13.414;2023-01-10T05:28:32;13.45;;;6.18;;
44588;SDS011;30298;52.562;13.414;2023-01-10T05:30:57;13.07;;;6.20;;
44588;SDS011;30298;52.562;13.414;2023-01-10T05:33:23;13.18;;;5.72;;
44588;SDS011;30298;52.562;13.414;2023-01-10T05:35:48;20.03;;;7.27;;
44588;SDS011;30298;52.562;13.414;2023-01-10T05:38:13;16.27;;;6.45;;
44588;SDS011;30298;52.562;13.414;2023-01-10T05:40:39;16.07;;;7.63;;
44588;SDS011;30298;52.562;13.414;2023-01-10T05:43:04;21.67;;;7.10;;
44588;SDS011;30298;52.562;13.414;2023-01-10T05:45:29;14.03;;;6.43;;
44588;SDS011;30298;52.562;13.414;2023-01-10T05:47:55;16.57;;;6.37;;
44588;SDS011;30298;52.562;13.414;2023-01-10T05:50:20;19.80;;;8.00;;
44588;SDS011;30298;52.562;13.414;2023-01-10T05:52:45;20.20;;;6.63;;
44588;SDS011;30298;52.562;13.414;2023-01-10T05:55:10;12.70;;;6.00;;
44588;SDS011;30298;52.562;13.414;2023-01-10T05:57:36;15.70;;;6.47;;
44588;SDS011;30298;52.562;13.414;2023-01-10T06:00:02;14.63;;;6.20;;
44588;SDS011;30298;52.562;13.414;2023-01-10T06:02:27;15.65;;;6.97;;
44588;SDS011;30298;52.562;13.414;2023-01-10T06:04:56;22.37;;;6.53;;
44588;SDS011;30298;52.562;13.414;2023-01-10T06:07:21;11.70;;;6.97;;
44588;SDS011;30298;52.562;13.414;2023-01-10T06:09:46;19.93;;;6.93;;
44588;SDS011;30298;52.562;13.414;2023-01-10T06:12:12;19.08;;;7.57;;
44588;SDS011;30298;52.562;13.414;2023-01-10T06:14:37;21.57;;;7.57;;
44588;SDS011;30298;52.562;13.414;2023-01-10T06:17:03;13.33;;;6.40;;
44588;SDS011;30298;52.562;13.414;2023-01-10T06:19:32;14.15;;;6.45;;
44588;SDS011;30298;52.562;13.414;2023-01-10T06:21:57;13.87;;;6.07;;
44588;SDS011;30298;52.562;13.414;2023-01-10T06:24:23;15.40;;;8.03;;
44588;SDS011;30298;52.562;13.414;2023-01-10T06:26:48;13.40;;;6.33;;
44588;SDS011;30298;52.562;13.414;2023-01-10T06:29:13;15.40;;;6.13;;
44588;SDS011;30298;52.562;13.414;2023-01-10T06:31:39;13.43;;;6.60;;
44588;SDS011;30298;52.562;13.414;2023-01-10T06:34:04;22.33;;;8.57;;
44588;SDS011;30298;52.562;13.414;2023-01-10T06:36:29;16.20;;;6.33;;
44588;SDS011;30298;52.562;13.414;2023-01-10T06:38:55;16.63;;;7.60;;
44588;SDS011;30298;52.562;13.414;2023-01-10T06:41:20;13.97;;;6.60;;
44588;SDS011;30298;52.562;13.414;2023-01-10T06:43:46;15.40;;;6.73;;
44588;SDS011;30298;52.562;13.414;2023-01-10T06:46:13;14.50;;;7.13;;
44588;SDS011;30298;52.562;13.414;2023-01-10T06:48:40;15.70;;;7.47;;
44588;SDS011;30298;52.562;13.414;2023-01-10T06:51:07;23.50;;;8.60;;
44588;SDS011;30298;52.562;13.414;2023-01-10T06:53:33;17.98;;;7.05;;
44588;SDS011;30298;52.562;13.414;2023-01-10T06:55:58;12.03;;;6.50;;
44588;SDS011;30298;52.562;13.414;2023-01-10T06:58:23;15.57;;;7.00;;
44588;SDS011;30298;52.562;13.414;2023-01-10T07:00:49;18.57;;;6.77;;
44588;SDS011;30298;52.562;13.414;2023-01-10T07:03:14;15.18;;;6.60;;
44588;SDS011;30298;52.562;13.414;2023-01-10T07:05:40;19.73;;;7.83;;
44588;SDS011;30298;52.562;13.414;2023-01-10T07:08:05;18.55;;;6.82;;
44588;SDS011;30298;52.562;13.414;2023-01-10T07:10:31;16.58;;;6.95;;
44588;SDS011;30298;52.562;13.414;2023-01-10T07:12:56;18.93;;;7.33;;
44588;SDS011;30298;52.562;13.414;2023-01-10T07:15:22;17.48;;;7.60;;
44588;SDS011;30298;52.562;13.414;2023-01-10T07:17:48;16.10;;;7.20;;
44588;SDS011;30298;52.562;13.414;2023-01-10T07:20:13;16.17;;;7.30;;
44588;SDS011;30298;52.562;13.414;2023-01-10T07:22:38;18.17;;;9.53;;
44588;SDS011;30298;52.562;13.414;2023-01-10T07:25:04;19.67;;;7.30;;
44588;SDS011;30298;52.562;13.414;2023-01-10T07:27:30;23.45;;;8.05;;
44588;SDS011;30298;52.562;13.414;2023-01-10T07:29:56;17.48;;;8.05;;
44588;SDS011;30298;52.562;13.414;2023-01-10T07:32:21;15.10;;;7.73;;
44588;SDS011;30298;52.562;13.414;2023-01-10T07:34:46;15.47;;;8.10;;
44588;SDS011;30298;52.562;13.414;2023-01-10T07:37:12;19.93;;;6.97;;
44588;SDS011;30298;52.562;13.414;2023-01-10T07:39:37;18.30;;;8.07;;
44588;SDS011;30298;52.562;13.414;2023-01-10T07:42:02;17.10;;;7.90;;
44588;SDS011;30298;52.562;13.414;2023-01-10T07:44:28;20.87;;;8.13;;
44588;SDS011;30298;52.562;13.414;2023-01-10T07:46:53;15.47;;;8.27;;
44588;SDS011;30298;52.562;13.414;2023-01-10T07:49:18;20.67;;;7.90;;
44588;SDS011;30298;52.562;13.414;2023-01-10T07:51:44;15.47;;;7.30;;
44588;SDS011;30298;52.562;13.414;2023-01-10T07:54:09;16.83;;;7.70;;
44588;SDS011;30298;52.562;13.414;2023-01-10T07:56:34;13.37;;;7.40;;
44588;SDS011;30298;52.562;13.414;2023-01-10T07:59:00;17.58;;;7.97;;
44588;SDS011;30298;52.562;13.414;2023-01-10T08:01:25;17.40;;;7.80;;
44588;SDS011;30298;52.562;13.414;2023-01-10T08:03:53;19.00;;;7.83;;
44588;SDS011;30298;52.562;13.414;2023-01-10T08:06:18;16.58;;;8.18;;
44588;SDS011;30298;52.562;13.414;2023-01-10T08:08:43;22.03;;;8.47;;
44588;SDS011;30298;52.562;13.414;2023-01-10T08:11:09;18.13;;;7.97;;
44588;SDS011;30298;52.562;13.414;2023-01-10T08:13:34;21.23;;;8.73;;
44588;SDS011;30298;52.562;13.414;2023-01-10T08:16:03;20.37;;;9.03;;
44588;SDS011;30298;52.562;13.414;2023-01-10T08:18:28;18.27;;;8.23;;
44588;SDS011;30298;52.562;13.414;2023-01-10T08:20:55;19.08;;;8.75;;
44588;SDS011;30298;52.562;13.414;2023-01-10T08:23:25;19.17;;;8.60;;
44588;SDS011;30298;52.562;13.414;2023-01-10T08:25:51;21.38;;;9.05;;
44588;SDS011;30298;52.562;13.414;2023-01-10T08:28:16;14.82;;;8.18;;
44588;SDS011;30298;52.562;13.414;2023-01-10T08:30:42;16.17;;;6.93;;
44588;SDS011;30298;52.562;13.414;2023-01-10T08:33:08;17.67;;;8.73;;
44588;SDS011;30298;52.562;13.414;2023-01-10T08:35:40;19.15;;;8.57;;
44588;SDS011;30298;52.562;13.414;2023-01-10T08:38:06;16.98;;;8.30;;
44588;SDS011;30298;52.562;13.414;2023-01-10T08:40:32;18.42;;;7.35;;
44588;SDS011;30298;52.562;13.414;2023-01-10T08:43:01;15.45;;;7.60;;
44588;SDS011;30298;52.562;13.414;2023-01-10T08:45:27;20.33;;;8.75;;
44588;SDS011;30298;52.562;13.414;2023-01-10T08:47:52;14.63;;;7.90;;
44588;SDS011;30298;52.562;13.414;2023-01-10T08:50:18;20.50;;;10.32;;
44588;SDS011;30298;52.562;13.414;2023-01-10T08:52:43;19.80;;;8.00;;
44588;SDS011;30298;52.562;13.414;2023-01-10T08:55:08;12.70;;;7.73;;
44588;SDS011;30298;52.562;13.414;2023-01-10T08:57:36;14.70;;;7.17;;
44588;SDS011;30298;52.562;13.414;2023-01-10T09:00:02;17.95;;;7.82;;
44588;SDS011;30298;52.562;13.414;2023-01-10T09:02:28;17.52;;;7.93;;
44588;SDS011;30298;52.562;13.414;2023-01-10T09:04:53;18.33;;;8.63;;
44588;SDS011;30298;52.562;13.414;2023-01-10T09:07:18;20.63;;;7.57;;
44588;SDS011;30298;52.562;13.414;2023-01-10T09:09:44;14.07;;;7.30;;
44588;SDS011;30298;52.562;13.414;2023-01-10T09:12:09;17.57;;;7.00;;
44588;SDS011;30298;52.562;13.414;2023-01-10T09:14:53;14.20;;;7.22;;
44588;SDS011;30298;52.562;13.414;2023-01-10T09:17:18;12.63;;;6.93;;
44588;SDS011;30298;52.562;13.414;2023-01-10T09:19:44;15.02;;;6.78;;
44588;SDS011;30298;52.562;13.414;2023-01-10T09:22:09;13.37;;;7.43;;
44588;SDS011;30298;52.562;13.414;2023-01-10T09:24:34;15.27;;;6.53;;
44588;SDS011;30298;52.562;13.414;2023-01-10T09:27:01;14.07;;;7.03;;
44588;SDS011;30298;52.562;13.414;2023-01-10T09:29:26;15.13;;;5.93;;
44588;SDS011;30298;52.562;13.414;2023-01-10T09:31:52;14.83;;;6.80;;
44588;SDS011;30298;52.562;13.414;2023-01-10T09:34:17;17.17;;;6.27;;
44588;SDS011;30298;52.562;13.414;2023-01-10T09:36:42;18.47;;;7.53;;
44588;SDS011;30298;52.562;13.414;2023-01-10T09:39:08;11.67;;;5.20;;
44588;SDS011;30298;52.562;13.414;2023-01-10T09:46:58;16.90;;;6.95;;
44588;SDS011;30298;52.562;13.414;2023-01-10T09:52:02;16.33;;;6.75;;
44588;SDS011;30298;52.562;13.414;2023-01-10T09:54:35;14.48;;;7.45;;
44588;SDS011;30298;52.562;13.414;2023-01-10T09:57:02;17.20;;;7.50;;
44588;SDS011;30298;52.562;13.414;2023-01-10T09:59:34;15.37;;;6.67;;
44588;SDS011;30298;52.562;13.414;2023-01-10T10:02:16;12.23;;;6.05;;
44588;SDS011;30298;52.562;13.414;2023-01-10T10:04:51;16.90;;;6.10;;
44588;SDS011;30298;52.562;13.414;2023-01-10T10:07:19;14.68;;;6.15;;
44588;SDS011;30298;52.562;13.414;2023-01-10T10:09:45;14.88;;;6.07;;
44588;SDS011;30298;52.562;13.414;2023-01-10T10:12:22;10.23;;;5.33;;
44588;SDS011;30298;52.562;13.414;2023-01-10T10:38:25;15.85;;;7.00;;
44588;SDS011;30298;52.562;13.414;2023-01-10T10:40:53;13.10;;;6.28;;
44588;SDS011;30298;52.562;13.414;2023-01-10T10:43:20;15.02;;;5.75;;
44588;SDS011;30298;52.562;13.414;2023-01-10T10:45:51;10.90;;;5.85;;
44588;SDS011;30298;52.562;13.414;2023-01-10T10:48:20;15.30;;;5.75;;
44588;SDS011;30298;52.562;13.414;2023-01-10T10:53:25;12.13;;;5.35;;
44588;SDS011;30298;52.562;13.414;2023-01-10T10:55:50;12.30;;;5.07;;
44588;SDS011;30298;52.562;13.414;2023-01-10T10:58:17;17.17;;;5.82;;
44588;SDS011;30298;52.562;13.414;2023-01-10T11:00:42;14.82;;;4.70;;
44588;SDS011;30298;52.562;13.414;2023-01-10T11:05:43;7.60;;;3.88;;
44588;SDS011;30298;52.562;13.414;2023-01-10T11:08:10;11.82;;;4.38;;
44588;SDS011;30298;52.562;13.414;2023-01-10T11:10:37;8.45;;;6.10;;
44588;SDS011;30298;52.562;13.414;2023-01-10T11:13:04;20.13;;;5.07;;
44588;SDS011;30298;52.562;13.414;2023-01-10T11:15:38;21.38;;;5.45;;
44588;SDS011;30298;52.562;13.414;2023-01-10T11:18:05;13.15;;;4.65;;
44588;SDS011;30298;52.562;13.414;2023-01-10T11:20:31;12.63;;;5.20;;
44588;SDS011;30298;52.562;13.414;2023-01-10T11:22:57;14.32;;;4.90;;
44588;SDS011;30298;52.562;13.414;2023-01-10T11:25:23;14.65;;;5.35;;
44588;SDS011;30298;52.562;13.414;2023-01-10T11:27:53;8.77;;;4.72;;
44588;SDS011;30298;52.562;13.414;2023-01-10T11:30:22;11.52;;;4.45;;
44588;SDS011;30298;52.562;13.414;2023-01-10T11:32:50;16.67;;;5.95;;
44588;SDS011;30298;52.562;13.414;2023-01-10T11:35:21;12.35;;;5.50;;
44588;SDS011;30298;52.562;13.414;2023-01-10T11:40:33;8.13;;;4.55;;
44588;SDS011;30298;52.562;13.414;2023-01-10T11:43:00;8.80;;;3.88;;
44588;SDS011;30298;52.562;13.414;2023-01-10T11:45:45;12.07;;;4.57;;
44588;SDS011;30298;52.562;13.414;2023-01-10T11:48:18;14.88;;;4.47;;
44588;SDS011;30298;52.562;13.414;2023-01-10T11:50:47;11.95;;;4.25;;
44588;SDS011;30298;52.562;13.414;2023-01-10T11:55:58;12.13;;;4.40;;
44588;SDS011;30298;52.562;13.414;2023-01-10T11:58:23;12.52;;;4.07;;
44588;SDS011;30298;52.562;13.414;2023-01-10T12:00:53;10.90;;;3.35;;
44588;SDS011;30298;52.562;13.414;2023-01-10T12:03:20;13.30;;;3.83;;
44588;SDS011;30298;52.562;13.414;2023-01-10T12:05:56;10.77;;;4.13;;
44588;SDS011;30298;52.562;13.414;2023-01-10T12:08:24;9.63;;;4.03;;
44588;SDS011;30298;52.562;13.414;2023-01-10T12:13:26;12.40;;;4.50;;
44588;SDS011;30298;52.562;13.414;2023-01-10T12:15:52;11.38;;;4.70;;
44588;SDS011;30298;52.562;13.414;2023-01-10T12:18:28;10.02;;;4.22;;
44588;SDS011;30298;52.562;13.414;2023-01-10T12:20:53;14.87;;;4.17;;
44588;SDS011;30298;52.562;13.414;2023-01-10T12:23:21;11.73;;;5.78;;
44588;SDS011;30298;52.562;13.414;2023-01-10T12:25:47;10.95;;;3.65;;
44588;SDS011;30298;52.562;13.414;2023-01-10T12:30:39;10.93;;;3.47;;
44588;SDS011;30298;52.562;13.414;2023-01-10T12:33:14;13.30;;;3.70;;
44588;SDS011;30298;52.562;13.414;2023-01-10T12:41:26;13.25;;;3.20;;
44588;SDS011;30298;52.562;13.414;2023-01-10T12:44:12;14.68;;;4.03;;
44588;SDS011;30298;52.562;13.414;2023-01-10T12:49:05;8.97;;;3.63;;
44588;SDS011;30298;52.562;13.414;2023-01-10T12:51:32;13.48;;;3.67;;
44588;SDS011;30298;52.562;13.414;2023-01-10T12:54:00;11.20;;;3.85;;
44588;SDS011;30298;52.562;13.414;2023-01-10T12:56:28;10.80;;;3.50;;
44588;SDS011;30298;52.562;13.414;2023-01-10T12:58:57;10.77;;;3.47;;
44588;SDS011;30298;52.562;13.414;2023-01-10T13:01:31;14.93;;;3.95;;
44588;SDS011;30298;52.562;13.414;2023-01-10T13:04:05;10.48;;;2.97;;
44588;SDS011;30298;52.562;13.414;2023-01-10T13:08:56;12.27;;;4.23;;
44588;SDS011;30298;52.562;13.414;2023-01-10T13:11:22;12.13;;;3.40;;
44588;SDS011;30298;52.562;13.414;2023-01-10T13:13:52;9.07;;;3.75;;
44588;SDS011;30298;52.562;13.414;2023-01-10T13:21:32;15.10;;;3.72;;
44588;SDS011;30298;52.562;13.414;2023-01-10T13:26:26;8.30;;;3.50;;
44588;SDS011;30298;52.562;13.414;2023-01-10T13:29:10;10.10;;;3.30;;
44588;SDS011;30298;52.562;13.414;2023-01-10T13:31:36;8.30;;;3.55;;
44588;SDS011;30298;52.562;13.414;2023-01-10T13:34:05;15.17;;;4.87;;
44588;SDS011;30298;52.562;13.414;2023-01-10T13:36:36;11.02;;;4.15;;
44588;SDS011;30298;52.562;13.414;2023-01-10T13:39:03;13.07;;;4.03;;
44588;SDS011;30298;52.562;13.414;2023-01-10T13:44:35;12.90;;;3.35;;
44588;SDS011;30298;52.562;13.414;2023-01-10T13:50:00;9.02;;;3.42;;
44588;SDS011;30298;52.562;13.414;2023-01-10T13:52:27;7.80;;;3.43;;
44588;SDS011;30298;52.562;13.414;2023-01-10T13:54:57;13.90;;;4.40;;
44588;SDS011;30298;52.562;13.414;2023-01-10T14:00:19;9.75;;;3.40;;
44588;SDS011;30298;52.562;13.414;2023-01-10T14:03:03;7.60;;;3.90;;
44588;SDS011;30298;52.562;13.414;2023-01-10T14:05:28;15.27;;;3.83;;
44588;SDS011;30298;52.562;13.414;2023-01-10T14:07:54;9.37;;;3.73;;
44588;SDS011;30298;52.562;13.414;2023-01-10T14:10:26;13.10;;;3.70;;
44588;SDS011;30298;52.562;13.414;2023-01-10T14:12:58;12.30;;;3.65;;
44588;SDS011;30298;52.562;13.414;2023-01-10T14:15:25;15.00;;;3.72;;
44588;SDS011;30298;52.562;13.414;2023-01-10T14:17:56;8.55;;;3.40;;
44588;SDS011;30298;52.562;13.414;2023-01-10T14:20:22;13.73;;;3.85;;
44588;SDS011;30298;52.562;13.414;2023-01-10T14:25:17;11.20;;;3.88;;
44588;SDS011;30298;52.562;13.414;2023-01-10T14:27:44;13.63;;;4.90;;
44588;SDS011;30298;52.562;13.414;2023-01-10T14:32:55;15.70;;;4.70;;
44588;SDS011;30298;52.562;13.414;2023-01-10T14:35:21;15.48;;;4.93;;
44588;SDS011;30298;52.562;13.414;2023-01-10T14:37:54;7.40;;;4.05;;
44588;SDS011;30298;52.562;13.414;2023-01-10T14:42:46;12.43;;;3.87;;
44588;SDS011;30298;52.562;13.414;2023-01-10T14:45:16;9.27;;;3.85;;
44588;SDS011;30298;52.562;13.414;2023-01-10T14:47:43;10.50;;;4.55;;
44588;SDS011;30298;52.562;13.414;2023-01-10T14:50:28;13.23;;;5.95;;
44588;SDS011;30298;52.562;13.414;2023-01-10T14:52:56;12.00;;;4.68;;
44588;SDS011;30298;52.562;13.414;2023-01-10T14:55:21;10.97;;;5.17;;
44588;SDS011;30298;52.562;13.414;2023-01-10T15:00:23;14.65;;;4.95;;
44588;SDS011;30298;52.562;13.414;2023-01-10T15:02:48;20.42;;;7.22;;
44588;SDS011;30298;52.562;13.414;2023-01-10T15:05:18;8.73;;;4.53;;
44588;SDS011;30298;52.562;13.414;2023-01-10T15:07:44;13.20;;;5.70;;
44588;SDS011;30298;52.562;13.414;2023-01-10T15:12:55;11.55;;;4.75;;
44588;SDS011;30298;52.562;13.414;2023-01-10T15:15:42;14.07;;;4.97;;
44588;SDS011;30298;52.562;13.414;2023-01-10T15:18:21;14.38;;;5.10;;
44588;SDS011;30298;52.562;13.414;2023-01-10T15:20:51;16.80;;;5.82;;
44588;SDS011;30298;52.562;13.414;2023-01-10T15:23:16;9.13;;;4.85;;
44588;SDS011;30298;52.562;13.414;2023-01-10T15:25:42;18.98;;;5.85;;
44588;SDS011;30298;52.562;13.414;2023-01-10T15:28:15;15.82;;;5.00;;
44588;SDS011;30298;52.562;13.414;2023-01-10T15:30:40;11.40;;;4.90;;
44588;SDS011;30298;52.562;13.414;2023-01-10T15:33:09;12.02;;;5.35;;
44588;SDS011;30298;52.562;13.414;2023-01-10T15:35:36;10.65;;;4.88;;
44588;SDS011;30298;52.562;13.414;2023-01-10T15:38:02;16.17;;;5.13;;
44588;SDS011;30298;52.562;13.414;2023-01-10T15:40:29;11.15;;;4.72;;
44588;SDS011;30298;52.562;13.414;2023-01-10T15:43:37;16.80;;;4.57;;
44588;SDS011;30298;52.562;13.414;2023-01-10T15:45:43;12.00;;;5.35;;
44588;SDS011;30298;52.562;13.414;2023-01-10T15:50:54;13.73;;;5.28;;
44588;SDS011;30298;52.562;13.414;2023-01-10T15:53:20;13.73;;;5.25;;
44588;SDS011;30298;52.562;13.414;2023-01-10T15:56:13;11.70;;;5.13;;
44588;SDS011;30298;52.562;13.414;2023-01-10T15:58:40;13.25;;;5.55;;
44588;SDS011;30298;52.562;13.414;2023-01-10T16:01:06;15.40;;;5.80;;
44588;SDS011;30298;52.562;13.414;2023-01-10T16:03:58;13.60;;;6.22;;
44588;SDS011;30298;52.562;13.414;2023-01-10T16:06:27;12.75;;;5.22;;
44588;SDS011;30298;52.562;13.414;2023-01-10T16:08:54;13.52;;;4.78;;
44588;SDS011;30298;52.562;13.414;2023-01-10T16:14:05;13.68;;;4.75;;
44588;SDS011;30298;52.562;13.414;2023-01-10T16:16:30;15.90;;;5.53;;
44588;SDS011;30298;52.562;13.414;2023-01-10T16:18:55;9.60;;;4.30;;
44588;SDS011;30298;52.562;13.414;2023-01-10T16:21:21;9.13;;;4.63;;
44588;SDS011;30298;52.562;13.414;2023-01-10T16:23:48;12.48;;;4.82;;
44588;SDS011;30298;52.562;13.414;2023-01-10T16:26:14;9.52;;;4.70;;
44588;SDS011;30298;52.562;13.414;2023-01-10T16:28:40;13.18;;;4.35;;
44588;SDS011;30298;52.562;13.414;2023-01-10T16:31:08;11.03;;;4.63;;
44588;SDS011;30298;52.562;13.414;2023-01-10T16:33:34;9.32;;;4.55;;
44588;SDS011;30298;52.562;13.414;2023-01-10T16:36:01;10.70;;;4.47;;
44588;SDS011;30298;52.562;13.414;2023-01-10T16:38:27;11.52;;;4.55;;
44588;SDS011;30298;52.562;13.414;2023-01-10T16:40:56;12.38;;;4.80;;